Nearby METAR Reports

 

LFRV - Vannes-Meucon, FRANCE
Distance from station: NE 28km
Mise à jour: 21/08/2019 15:30
Clair
Clair
 Wind from E
Vent: E 9 km/h
Température: 23°C
Point de rosée: 11°C
Humidité: 47%
Baromètre: 1025 hPa
Résumé: Clair
Visibility: greater than 10 km
2019/08/21 13:30 LFRV 211330Z AUTO 08005KT 030V160 CAVOK 23/11 Q1025
LFRZ - Saint - Nazaire / Montoir, FRANCE
Distance from station: SE 64km
Mise à jour: 21/08/2019 16:00
Clair
Clair
 Wind from ESE
Vent: ESE 13 km/h
Température: 25°C
Point de rosée: 8°C
Humidité: 34%
Baromètre: 1024 hPa
Résumé: Clair
Visibility: greater than 10 km
2019/08/21 14:00 LFRZ 211400Z AUTO 12007KT 040V200 CAVOK 25/08 Q1024 NOSIG
 
LFRH - Lorient / Lann- Bihoué, FRANCE
Distance from station: NO 81km
Mise à jour: 21/08/2019 16:00
Clair
Clair
 Wind from O
Vent: O 17 km/h
Température: 23°C
Point de rosée: 10°C
Humidité: 44%
Baromètre: 1026 hPa
Résumé: Clair
Visibility: greater than 10 km
2019/08/21 14:00 LFRH 211400Z AUTO 26009KT 220V290 CAVOK 23/10 Q1026 NOSIG
LFRB - Brest - Guipavas, FRANCE
Distance from station: NO 200km
Mise à jour: 21/08/2019 16:00
nuageux
nuageux
 Wind from N
Vent: N 15 km/h
Température: 20°C
Point de rosée: 12°C
Humidité: 60%
Clouds: nuageux
Visibility: 10 km
Cloud details: nuageux 1494 m
nuageux 1707 m
2019/08/21 14:00 LFRB 211400Z AUTO 36008KT 330V030 9999 BKN049 BKN056 20/12
 
LFPV - Villacoublay - Vélizy/, FRANCE
Distance from station: NE 450km
Mise à jour: 21/08/2019 16:00
Clair
Clair
 Wind from ENE
Vent: ENE 6 km/h
Température: 22°C
Point de rosée: 9°C
Humidité: 44%
Résumé: Clair
Visibility: greater than 10 km
2019/08/21 14:00 LFPV 211400Z AUTO 06003KT 020V130 CAVOK 22/09 Q102
LFRS - Nantes Atlantique, FRANCE
Distance from station: SE 106km
Mise à jour: 21/08/2019 16:00
Clair
Clair
 Wind from ESE
Vent: ESE 9 km/h
Température: 26°C
Point de rosée: 9°C
Humidité: 34%
Résumé: Clair
Visibility: greater than 10 km
2019/08/21 14:00 LFRS 211400Z AUTO 12005KT 050V220 CAVOK 26/09 Q102